createdAt,value
2022-10-18T00:00:56.153Z,47.93
2022-10-18T00:05:52.903Z,47.78
2022-10-18T00:10:52.797Z,48.58
2022-10-18T00:15:50.618Z,49.61
2022-10-18T00:20:56.149Z,50.06
2022-10-18T00:25:58.662Z,49.99
2022-10-18T00:30:55.789Z,50.54
2022-10-18T00:35:52.346Z,51.19
2022-10-18T00:40:48.865Z,51.68
2022-10-18T00:45:45.614Z,51.49
2022-10-18T00:50:43.334Z,51.58
2022-10-18T00:55:39.948Z,51.37
2022-10-18T01:00:38.903Z,51.00
2022-10-18T01:05:37.543Z,50.49
2022-10-18T01:10:39.195Z,50.98
2022-10-18T01:15:42.589Z,51.46
2022-10-18T01:20:55.135Z,51.73
2022-10-18T01:25:56.880Z,51.76
2022-10-18T01:30:57.020Z,51.75
2022-10-18T01:35:56.631Z,50.76
2022-10-18T01:40:55.006Z,50.76
2022-10-18T01:45:54.523Z,49.83
2022-10-18T01:50:53.629Z,49.89
2022-10-18T01:55:55.364Z,49.40
2022-10-18T02:00:58.119Z,49.59
2022-10-18T02:05:58.557Z,49.23
2022-10-18T02:10:58.743Z,48.99
2022-10-18T02:15:58.445Z,48.86
2022-10-18T02:20:55.799Z,48.59
2022-10-18T02:25:54.051Z,48.93
2022-10-18T02:30:52.953Z,48.98
2022-10-18T02:35:51.967Z,49.57
2022-10-18T02:40:48.760Z,49.97
2022-10-18T02:45:46.139Z,50.13
2022-10-18T02:50:42.907Z,50.17
2022-10-18T02:55:39.606Z,50.38
2022-10-18T03:00:36.546Z,50.57
2022-10-18T03:05:34.022Z,51.25
2022-10-18T03:10:30.645Z,51.05
2022-10-18T03:15:27.184Z,51.16
2022-10-18T03:20:23.986Z,51.80
2022-10-18T03:25:21.516Z,51.06
2022-10-18T03:30:18.170Z,49.95
2022-10-18T03:35:15.173Z,49.32
2022-10-18T03:40:11.836Z,49.02
2022-10-18T03:45:09.829Z,49.29
2022-10-18T03:50:07.619Z,49.36
2022-10-18T03:55:04.456Z,48.90
2022-10-18T04:00:01.005Z,48.42
2022-10-18T04:05:04.470Z,48.61
2022-10-18T04:10:01.316Z,48.63
2022-10-18T04:14:57.942Z,48.74
2022-10-18T04:19:54.694Z,49.51
2022-10-18T04:24:52.735Z,50.69
2022-10-18T04:29:50.614Z,51.71
2022-10-18T04:34:47.304Z,52.10
2022-10-18T04:39:49.953Z,52.92
2022-10-18T04:44:50.602Z,52.05
2022-10-18T04:49:47.236Z,51.04
2022-10-18T04:54:43.874Z,50.84
2022-10-18T04:59:40.530Z,52.51
2022-10-18T05:04:37.909Z,53.11
2022-10-18T05:09:34.788Z,52.16
2022-10-18T05:14:31.412Z,51.38
2022-10-18T05:19:31.144Z,52.16
2022-10-18T05:24:28.565Z,52.59
2022-10-18T05:29:25.617Z,52.65
2022-10-18T05:34:22.552Z,53.70
2022-10-18T05:39:19.207Z,55.70
2022-10-18T05:44:17.009Z,55.78
2022-10-18T05:49:14.039Z,55.18
2022-10-18T05:54:11.725Z,55.44
2022-10-18T05:59:11.470Z,54.75
2022-10-18T06:04:09.867Z,54.55
2022-10-18T06:09:07.338Z,54.02
2022-10-18T06:14:08.102Z,52.34
2022-10-18T06:19:08.463Z,52.44
2022-10-18T06:24:08.442Z,54.41
2022-10-18T06:29:05.481Z,56.03
2022-10-18T06:34:04.528Z,57.00
2022-10-18T06:39:25.549Z,58.18
2022-10-18T06:44:26.834Z,59.77
2022-10-18T06:55:58.051Z,61.50
2022-10-18T07:01:30.348Z,61.47
2022-10-18T07:06:47.912Z,61.17
2022-10-18T07:12:53.431Z,60.17
2022-10-18T07:19:18.980Z,59.74
2022-10-18T07:48:59.492Z,56.38
2022-10-18T07:53:57.925Z,56.23
2022-10-18T07:59:24.979Z,55.41
2022-10-18T08:04:52.773Z,55.03
2022-10-18T08:09:52.813Z,54.70
2022-10-18T08:14:51.882Z,54.93
2022-10-18T08:19:58.535Z,54.62
2022-10-18T08:25:06.989Z,53.85
2022-10-18T08:35:56.405Z,52.47
2022-10-18T08:40:53.931Z,51.88
2022-10-18T08:45:51.196Z,51.47
2022-10-18T08:50:50.919Z,51.15
2022-10-18T08:55:51.842Z,51.08
2022-10-18T09:00:55.894Z,50.38
2022-10-18T09:05:54.820Z,50.21
2022-10-18T09:10:59.568Z,49.90
2022-10-18T09:16:00.631Z,49.42
2022-10-18T09:21:01.004Z,49.53
2022-10-18T09:26:04.076Z,49.67
2022-10-18T09:31:08.474Z,49.74
2022-10-18T09:36:07.186Z,49.90
2022-10-18T09:41:08.834Z,49.72
2022-10-18T09:46:07.213Z,49.83
2022-10-18T09:51:10.803Z,49.39
2022-10-18T09:56:10.185Z,49.27
2022-10-18T10:01:11.443Z,49.27
2022-10-18T10:06:17.211Z,48.87
2022-10-18T10:11:26.525Z,48.50
2022-10-18T10:16:25.199Z,48.62
2022-10-18T10:21:25.056Z,48.67
2022-10-18T10:26:27.490Z,47.54
2022-10-18T10:31:29.765Z,47.49
2022-10-18T10:36:26.662Z,46.79
2022-10-18T10:41:24.152Z,46.85
2022-10-18T10:46:22.721Z,46.58
2022-10-18T10:51:31.857Z,46.42
2022-10-18T10:56:30.426Z,46.92
2022-10-18T11:01:30.474Z,47.27
2022-10-18T11:06:51.324Z,45.81
2022-10-18T11:11:53.092Z,44.74
2022-10-18T11:16:54.975Z,44.42
2022-10-18T11:21:52.816Z,43.97
2022-10-18T11:26:53.975Z,44.02
2022-10-18T11:31:56.098Z,43.12
2022-10-18T11:37:26.342Z,42.33
2022-10-18T11:42:26.889Z,42.25
2022-10-18T11:47:35.155Z,41.56
2022-10-18T11:52:39.837Z,41.45
2022-10-18T11:57:40.977Z,41.22
2022-10-18T12:02:57.628Z,40.99
2022-10-18T12:07:58.404Z,40.97
2022-10-18T12:12:58.112Z,40.59
2022-10-18T12:17:55.963Z,40.80
2022-10-18T12:22:56.121Z,41.47
2022-10-18T12:27:56.288Z,41.79
2022-10-18T12:33:03.689Z,40.83
2022-10-18T12:38:19.979Z,40.75
2022-10-18T12:43:18.345Z,40.63
2022-10-18T12:48:27.534Z,40.35
2022-10-18T12:53:28.160Z,38.88
2022-10-18T12:58:26.827Z,39.63
2022-10-18T13:03:46.894Z,38.31
2022-10-18T13:08:46.741Z,38.98
2022-10-18T13:13:55.821Z,37.94
2022-10-18T13:18:54.055Z,37.26
2022-10-18T13:24:05.789Z,38.07
2022-10-18T13:29:09.387Z,37.09
2022-10-18T13:34:24.759Z,38.05
2022-10-18T13:39:21.561Z,36.37
2022-10-18T13:44:28.246Z,36.56
2022-10-18T13:49:31.186Z,37.35
2022-10-18T13:54:49.986Z,36.64
2022-10-18T14:00:03.457Z,36.68
2022-10-18T14:05:29.103Z,36.28
2022-10-18T14:10:43.784Z,36.00
2022-10-18T14:15:50.813Z,35.88
2022-10-18T14:21:12.340Z,35.27
2022-10-18T14:26:10.538Z,35.33
2022-10-18T14:31:12.719Z,35.18
2022-10-18T14:36:14.660Z,34.94
2022-10-18T14:41:17.746Z,34.87
2022-10-18T14:46:19.906Z,35.28
2022-10-18T14:51:16.711Z,35.47
2022-10-18T14:56:20.277Z,36.03
2022-10-18T15:01:17.979Z,36.05
2022-10-18T15:06:17.518Z,36.55
2022-10-18T15:11:17.101Z,36.87
2022-10-18T15:16:18.301Z,36.95
2022-10-18T15:21:21.110Z,37.39
2022-10-18T15:26:21.508Z,37.75
2022-10-18T15:31:25.800Z,38.38
2022-10-18T15:36:26.427Z,37.86
2022-10-18T15:41:39.089Z,37.55
2022-10-18T15:46:38.729Z,37.77
2022-10-18T15:51:46.654Z,37.52
2022-10-18T15:56:46.471Z,36.22
2022-10-18T16:01:46.077Z,34.67
2022-10-18T16:06:43.667Z,35.22
2022-10-18T16:11:41.269Z,35.57
2022-10-18T16:16:40.751Z,35.74
2022-10-18T16:21:38.471Z,36.73
2022-10-18T16:26:36.297Z,38.07
2022-10-18T16:31:34.027Z,39.43
2022-10-18T16:36:31.425Z,40.04
2022-10-18T16:41:28.592Z,40.62
2022-10-18T16:46:26.794Z,40.36
2022-10-18T16:51:23.509Z,40.88
2022-10-18T16:56:21.836Z,41.90
2022-10-18T17:01:19.357Z,41.97
2022-10-18T17:06:17.872Z,41.81
2022-10-18T17:11:18.661Z,41.99
2022-10-18T17:16:21.014Z,44.56
2022-10-18T17:21:20.637Z,47.18
2022-10-18T17:26:28.311Z,47.16
2022-10-18T17:31:25.872Z,46.68
2022-10-18T17:36:25.066Z,46.37
2022-10-18T17:41:21.809Z,46.04
2022-10-18T17:46:19.085Z,45.24
2022-10-18T17:51:17.416Z,44.96
2022-10-18T17:56:15.363Z,44.62
2022-10-18T18:01:13.725Z,44.64
2022-10-18T18:06:14.469Z,44.80
2022-10-18T18:11:11.269Z,44.83
2022-10-18T18:16:13.251Z,45.78
2022-10-18T18:21:10.065Z,46.34
2022-10-18T18:26:07.083Z,46.27
2022-10-18T18:31:07.208Z,47.00
2022-10-18T18:36:06.136Z,46.65
2022-10-18T18:41:06.577Z,46.46
2022-10-18T18:46:03.689Z,46.08
2022-10-18T18:51:00.488Z,45.81
2022-10-18T18:56:04.977Z,45.46
2022-10-18T19:01:05.289Z,45.05
2022-10-18T19:06:02.582Z,45.10
2022-10-18T19:10:59.397Z,46.94
2022-10-18T19:16:10.634Z,49.26
2022-10-18T19:21:09.699Z,50.45
2022-10-18T19:26:12.022Z,50.16
2022-10-18T19:31:09.831Z,50.66
2022-10-18T19:36:08.113Z,50.38
2022-10-18T19:41:04.884Z,49.77
2022-10-18T19:46:01.931Z,49.79
2022-10-18T19:51:03.473Z,49.44
2022-10-18T19:56:01.651Z,49.42
2022-10-18T20:00:59.576Z,48.57
2022-10-18T20:05:56.438Z,47.97
2022-10-18T20:10:53.169Z,47.39
2022-10-18T20:15:51.663Z,46.83
2022-10-18T20:20:48.837Z,46.06
2022-10-18T20:25:55.263Z,45.83
2022-10-18T20:31:04.123Z,44.40
2022-10-18T20:36:04.487Z,45.60
2022-10-18T20:41:05.121Z,46.24
2022-10-18T20:46:02.967Z,45.81
2022-10-18T20:51:02.620Z,45.77
2022-10-18T20:56:03.391Z,45.69
2022-10-18T21:01:07.700Z,45.28
2022-10-18T21:06:08.272Z,45.47
2022-10-18T21:11:05.235Z,48.08
2022-10-18T21:16:02.353Z,48.18
2022-10-18T21:21:07.667Z,47.54
2022-10-18T21:26:04.520Z,47.35
2022-10-18T21:31:07.988Z,47.49
2022-10-18T21:36:04.896Z,47.58
2022-10-18T21:41:07.120Z,47.08
2022-10-18T21:46:03.742Z,46.62
2022-10-18T21:51:02.040Z,47.70
2022-10-18T21:56:04.566Z,49.32
2022-10-18T22:01:01.421Z,49.79
2022-10-18T22:06:00.642Z,51.88
2022-10-18T22:10:57.696Z,52.18
2022-10-18T22:15:59.796Z,52.86
2022-10-18T22:21:00.049Z,51.49
2022-10-18T22:25:56.567Z,51.17
2022-10-18T22:30:53.291Z,51.03
2022-10-18T22:35:50.804Z,50.84
2022-10-18T22:40:49.615Z,50.57
2022-10-18T22:45:46.324Z,50.56
2022-10-18T22:50:43.016Z,49.70
2022-10-18T22:55:43.981Z,49.17
2022-10-18T23:00:40.678Z,49.51
2022-10-18T23:05:37.855Z,49.77
2022-10-18T23:10:36.299Z,50.46
2022-10-18T23:15:33.606Z,49.81
2022-10-18T23:20:30.660Z,49.94
2022-10-18T23:25:27.908Z,50.64
2022-10-18T23:30:24.465Z,51.59
2022-10-18T23:35:22.029Z,52.47
2022-10-18T23:40:18.634Z,53.58
2022-10-18T23:45:15.262Z,54.57
2022-10-18T23:50:11.912Z,54.80
2022-10-18T23:55:09.387Z,55.54
